createdAt,value
2022-11-01T00:02:24.365Z,98555.74
2022-11-01T00:04:53.088Z,98556.44
2022-11-01T00:07:21.174Z,98557.74
2022-11-01T00:09:49.218Z,98558.56
2022-11-01T00:12:17.244Z,98556.65
2022-11-01T00:14:45.311Z,98556.48
2022-11-01T00:17:13.388Z,98562.45
2022-11-01T00:19:41.375Z,98562.64
2022-11-01T00:22:09.365Z,98562.48
2022-11-01T00:24:37.441Z,98559.80
2022-11-01T00:27:05.714Z,98560.02
2022-11-01T00:29:33.741Z,98556.55
2022-11-01T00:32:01.784Z,98556.94
2022-11-01T00:34:30.008Z,98559.07
2022-11-01T00:36:58.192Z,98558.61
2022-11-01T00:39:30.596Z,98559.59
2022-11-01T00:42:00.284Z,98558.59
2022-11-01T00:44:29.013Z,98558.67
2022-11-01T00:46:57.016Z,98557.27
2022-11-01T00:49:25.118Z,98553.66
2022-11-01T00:51:53.310Z,98552.73
2022-11-01T00:54:21.586Z,98552.64
2022-11-01T00:56:49.831Z,98550.30
2022-11-01T00:59:18.109Z,98547.19
2022-11-01T01:01:46.541Z,98547.55
2022-11-01T01:04:14.721Z,98547.36
2022-11-01T01:06:42.912Z,98549.10
2022-11-01T01:09:11.997Z,98547.17
2022-11-01T01:11:40.026Z,98548.70
2022-11-01T01:14:08.683Z,98548.09
2022-11-01T01:16:37.096Z,98548.33
2022-11-01T01:19:05.978Z,98547.66
2022-11-01T01:21:34.041Z,98549.18
2022-11-01T01:24:02.894Z,98545.30
2022-11-01T01:26:30.970Z,98546.82
2022-11-01T01:29:00.678Z,98548.80
2022-11-01T01:31:28.652Z,98548.95
2022-11-01T01:34:00.025Z,98546.02
2022-11-01T01:36:28.007Z,98544.33
2022-11-01T01:38:56.196Z,98542.86
2022-11-01T01:41:42.685Z,98542.70
2022-11-01T01:44:50.460Z,98537.86
2022-11-01T01:47:23.518Z,98533.79
2022-11-01T01:50:00.421Z,98535.06
2022-11-01T01:52:32.132Z,98537.02
2022-11-01T01:55:05.296Z,98533.96
2022-11-01T01:57:36.544Z,98534.33
2022-11-01T02:00:05.824Z,98530.41
2022-11-01T02:02:41.663Z,98529.57
2022-11-01T02:05:12.570Z,98532.40
2022-11-01T02:07:41.374Z,98534.36
2022-11-01T02:10:11.846Z,98535.71
2022-11-01T02:12:46.546Z,98540.74
2022-11-01T02:15:16.362Z,98538.74
2022-11-01T02:17:55.747Z,98537.90
2022-11-01T02:20:39.957Z,98534.58
2022-11-01T02:23:32.839Z,98542.66
2022-11-01T02:26:23.475Z,98541.07
2022-11-01T02:29:13.561Z,98539.30
2022-11-01T02:32:15.447Z,98538.53
2022-11-01T02:34:58.245Z,98536.26
2022-11-01T02:37:42.685Z,98537.24
2022-11-01T02:40:16.942Z,98540.14
2022-11-01T02:42:48.799Z,98539.68
2022-11-01T02:45:29.704Z,98542.60
2022-11-01T02:48:00.210Z,98539.23
2022-11-01T02:50:41.898Z,98541.28
2022-11-01T02:53:11.008Z,98541.97
2022-11-01T02:55:39.205Z,98540.29
2022-11-01T02:58:23.732Z,98540.75
2022-11-01T03:00:52.320Z,98540.58
2022-11-01T03:03:35.948Z,98540.48
2022-11-01T03:06:03.923Z,98539.63
2022-11-01T03:08:43.849Z,98541.84
2022-11-01T03:11:21.561Z,98544.65
2022-11-01T03:14:04.996Z,98540.96
2022-11-01T03:16:57.579Z,98546.51
2022-11-01T03:19:25.720Z,98547.25
2022-11-01T03:21:56.655Z,98545.58
2022-11-01T03:24:36.489Z,98546.80
2022-11-01T03:27:11.910Z,98550.25
2022-11-01T03:29:45.976Z,98549.02
2022-11-01T03:32:16.680Z,98549.33
2022-11-01T03:34:47.322Z,98552.93
2022-11-01T03:37:16.616Z,98553.80
2022-11-01T03:39:50.078Z,98554.10
2022-11-01T03:42:24.324Z,98552.27
2022-11-01T03:45:03.412Z,98550.98
2022-11-01T03:47:32.188Z,98551.48
2022-11-01T03:50:18.838Z,98552.79
2022-11-01T03:52:47.750Z,98553.96
2022-11-01T03:55:18.302Z,98553.06
2022-11-01T03:57:52.747Z,98550.09
2022-11-01T04:00:22.315Z,98546.65
2022-11-01T04:02:52.149Z,98548.17
2022-11-01T04:05:21.782Z,98548.60
2022-11-01T04:07:51.580Z,98547.28
2022-11-01T04:10:22.007Z,98544.36
2022-11-01T04:12:52.697Z,98540.73
2022-11-01T04:15:42.182Z,98536.65
2022-11-01T04:18:42.964Z,98536.14
2022-11-01T04:21:17.430Z,98534.02
2022-11-01T04:23:46.439Z,98536.77
2022-11-01T04:26:21.413Z,98531.00
2022-11-01T04:28:59.656Z,98536.68
2022-11-01T04:31:33.895Z,98533.61
2022-11-01T04:34:04.207Z,98537.52
2022-11-01T04:36:32.853Z,98539.34
2022-11-01T04:39:01.080Z,98537.11
2022-11-01T04:41:29.856Z,98541.23
2022-11-01T04:43:59.949Z,98539.66
2022-11-01T04:46:34.087Z,98541.19
2022-11-01T04:49:02.026Z,98538.40
2022-11-01T04:51:30.150Z,98537.95
2022-11-01T04:53:58.254Z,98532.60
2022-11-01T04:56:26.241Z,98533.62
2022-11-01T04:58:54.436Z,98537.63
2022-11-01T05:01:22.497Z,98535.17
2022-11-01T05:03:50.750Z,98537.79
2022-11-01T05:06:18.765Z,98542.11
2022-11-01T05:08:49.195Z,98544.48
2022-11-01T05:11:17.255Z,98548.29
2022-11-01T05:13:45.319Z,98549.67
2022-11-01T05:16:19.360Z,98551.73
2022-11-01T05:18:48.770Z,98551.50
2022-11-01T05:21:17.435Z,98554.54
2022-11-01T05:23:49.501Z,98552.75
2022-11-01T05:26:17.804Z,98551.52
2022-11-01T05:28:45.922Z,98552.20
2022-11-01T05:31:14.745Z,98550.59
2022-11-01T05:33:43.025Z,98555.71
2022-11-01T05:36:11.310Z,98554.05
2022-11-01T05:38:39.338Z,98554.30
2022-11-01T05:41:07.517Z,98553.98
2022-11-01T05:43:35.675Z,98555.23
2022-11-01T05:46:07.996Z,98556.27
2022-11-01T05:48:38.487Z,98559.55
2022-11-01T05:51:06.763Z,98563.64
2022-11-01T05:53:34.805Z,98564.43
2022-11-01T05:56:03.091Z,98572.02
2022-11-01T05:58:31.533Z,98570.65
2022-11-01T06:01:01.930Z,98568.28
2022-11-01T06:03:30.442Z,98576.00
2022-11-01T06:05:59.155Z,98578.11
2022-11-01T06:08:28.263Z,98577.68
2022-11-01T06:11:05.404Z,98580.06
2022-11-01T06:13:36.031Z,98576.25
2022-11-01T06:16:06.015Z,98569.36
2022-11-01T06:18:34.139Z,98571.77
2022-11-01T06:21:02.182Z,98569.29
2022-11-01T06:23:30.357Z,98569.84
2022-11-01T06:26:04.147Z,98572.59
2022-11-01T06:28:32.869Z,98569.82
2022-11-01T06:31:03.319Z,98570.43
2022-11-01T06:33:31.668Z,98573.83
2022-11-01T06:36:03.070Z,98575.27
2022-11-01T06:38:31.395Z,98572.02
2022-11-01T06:40:59.473Z,98573.12
2022-11-01T06:43:28.575Z,98571.77
2022-11-01T06:46:01.353Z,98574.34
2022-11-01T06:48:30.239Z,98572.19
2022-11-01T06:50:58.376Z,98574.19
2022-11-01T06:53:26.824Z,98569.95
2022-11-01T06:55:54.983Z,98572.54
2022-11-01T06:58:23.288Z,98570.50
2022-11-01T07:00:51.542Z,98571.13
2022-11-01T07:03:19.876Z,98571.77
2022-11-01T07:05:49.986Z,98568.90
2022-11-01T07:08:18.279Z,98567.55
2022-11-01T07:10:46.521Z,98563.14
2022-11-01T07:13:14.623Z,98563.41
2022-11-01T07:15:42.822Z,98562.08
2022-11-01T07:18:10.878Z,98559.88
2022-11-01T07:20:42.590Z,98563.38
2022-11-01T07:23:16.973Z,98566.47
2022-11-01T07:25:45.167Z,98564.83
2022-11-01T07:28:13.315Z,98562.30
2022-11-01T07:30:41.328Z,98564.88
2022-11-01T07:33:09.464Z,98564.27
2022-11-01T07:35:37.738Z,98560.11
2022-11-01T07:38:09.716Z,98557.11
2022-11-01T07:40:40.431Z,98557.56
2022-11-01T07:43:08.480Z,98558.65
2022-11-01T07:45:37.068Z,98558.36
2022-11-01T07:48:10.531Z,98555.08
2022-11-01T07:50:41.166Z,98553.85
2022-11-01T07:53:18.073Z,98553.69
2022-11-01T07:55:50.685Z,98552.48
2022-11-01T07:58:18.834Z,98548.61
2022-11-01T08:00:47.172Z,98549.92
2022-11-01T08:03:17.811Z,98544.51
2022-11-01T08:05:48.154Z,98548.82
2022-11-01T08:08:16.729Z,98552.18
2022-11-01T08:10:46.242Z,98553.48
2022-11-01T08:13:17.716Z,98555.36
2022-11-01T08:15:47.050Z,98560.73
2022-11-01T08:18:16.359Z,98557.23
2022-11-01T08:20:44.905Z,98557.36
2022-11-01T08:23:12.933Z,98557.47
2022-11-01T08:25:40.924Z,98552.44
2022-11-01T08:28:12.496Z,98551.33
2022-11-01T08:30:42.150Z,98553.59
2022-11-01T08:33:10.738Z,98556.95
2022-11-01T08:35:39.196Z,98554.70
2022-11-01T08:38:07.483Z,98553.36
2022-11-01T08:40:35.590Z,98553.03
2022-11-01T08:43:04.072Z,98553.63
2022-11-01T08:45:32.388Z,98553.61
2022-11-01T08:48:03.448Z,98550.98
2022-11-01T08:50:33.965Z,98542.85
2022-11-01T08:53:13.641Z,98541.39
2022-11-01T08:55:42.263Z,98546.03
2022-11-01T08:58:10.422Z,98541.25
2022-11-01T09:00:38.600Z,98535.08
2022-11-01T09:03:06.714Z,98534.05
2022-11-01T09:05:38.781Z,98538.23
2022-11-01T09:08:09.357Z,98533.34
2022-11-01T09:10:37.486Z,98534.99
2022-11-01T09:13:05.843Z,98532.57
2022-11-01T09:15:34.927Z,98530.67
2022-11-01T09:18:07.947Z,98529.48
2022-11-01T09:20:36.329Z,98526.00
2022-11-01T09:23:04.936Z,98526.80
2022-11-01T09:25:33.758Z,98527.06
2022-11-01T09:28:02.008Z,98525.78
2022-11-01T09:30:30.629Z,98523.95
2022-11-01T09:32:58.758Z,98521.79
2022-11-01T09:35:27.148Z,98521.71
2022-11-01T09:37:59.986Z,98521.23
2022-11-01T09:40:36.416Z,98522.48
2022-11-01T09:43:09.740Z,98524.21
2022-11-01T09:45:37.951Z,98522.82
2022-11-01T09:48:07.668Z,98527.17
2022-11-01T09:50:44.501Z,98528.05
2022-11-01T09:53:23.904Z,98525.73
2022-11-01T09:56:10.505Z,98522.31
2022-11-01T09:59:01.946Z,98521.21
2022-11-01T10:01:36.390Z,98518.44
2022-11-01T10:04:48.760Z,98516.04
2022-11-01T10:07:26.189Z,98515.88
2022-11-01T10:10:09.312Z,98521.13
2022-11-01T10:13:06.685Z,98519.73
2022-11-01T10:15:46.904Z,98522.20
2022-11-01T10:18:28.339Z,98518.80
2022-11-01T10:21:12.910Z,98517.13
2022-11-01T10:23:53.160Z,98514.11
2022-11-01T10:26:30.236Z,98508.75
2022-11-01T10:29:20.501Z,98510.33
2022-11-01T10:31:53.445Z,98502.38
2022-11-01T10:34:33.382Z,98501.60
2022-11-01T10:37:14.668Z,98500.89
2022-11-01T10:40:02.860Z,98497.91
2022-11-01T10:42:34.138Z,98494.52
2022-11-01T10:45:08.929Z,98494.27
2022-11-01T10:47:37.405Z,98490.84
2022-11-01T10:50:19.071Z,98489.67
2022-11-01T10:52:58.620Z,98488.73
2022-11-01T10:55:32.815Z,98481.27
2022-11-01T10:58:13.571Z,98479.36
2022-11-01T11:00:42.611Z,98480.43
2022-11-01T11:03:21.469Z,98474.44
2022-11-01T11:05:51.957Z,98471.83
2022-11-01T11:08:24.042Z,98475.33
2022-11-01T11:10:53.298Z,98473.67
2022-11-01T11:13:25.393Z,98470.55
2022-11-01T11:16:02.387Z,98464.83
2022-11-01T11:18:39.000Z,98460.73
2022-11-01T11:21:12.076Z,98460.46
2022-11-01T11:23:43.149Z,98458.83
2022-11-01T11:26:16.887Z,98458.33
2022-11-01T11:28:54.912Z,98454.58
2022-11-01T11:31:28.363Z,98455.77
2022-11-01T11:34:22.148Z,98457.00
2022-11-01T11:36:51.906Z,98461.73
2022-11-01T11:39:30.431Z,98460.11
2022-11-01T11:42:10.562Z,98457.73
2022-11-01T11:44:43.293Z,98455.00
2022-11-01T11:47:40.438Z,98456.90
2022-11-01T11:50:35.293Z,98453.20
2022-11-01T11:53:20.343Z,98446.60
2022-11-01T11:55:54.649Z,98442.92
2022-11-01T11:58:33.024Z,98447.19
2022-11-01T12:01:15.662Z,98449.31
2022-11-01T12:03:54.020Z,98446.55
2022-11-01T12:06:29.801Z,98440.90
2022-11-01T12:08:59.847Z,98428.21
2022-11-01T12:11:45.882Z,98427.88
2022-11-01T12:14:22.322Z,98424.84
2022-11-01T12:16:51.224Z,98424.89
2022-11-01T12:19:32.464Z,98423.45
2022-11-01T12:22:03.667Z,98424.56
2022-11-01T12:24:42.781Z,98419.87
2022-11-01T12:27:18.264Z,98418.58
2022-11-01T12:29:58.522Z,98421.08
2022-11-01T12:32:35.929Z,98420.17
2022-11-01T12:35:07.633Z,98419.80
2022-11-01T12:37:47.882Z,98416.41
2022-11-01T12:40:42.846Z,98406.48
2022-11-01T12:43:46.415Z,98409.50
2022-11-01T12:46:25.914Z,98409.52
2022-11-01T12:49:05.572Z,98410.43
2022-11-01T12:51:50.999Z,98408.80
2022-11-01T12:54:32.198Z,98403.10
2022-11-01T12:57:10.355Z,98406.79
2022-11-01T12:59:47.727Z,98406.86
2022-11-01T13:02:28.177Z,98404.86
2022-11-01T13:05:40.778Z,98406.71
2022-11-01T13:08:30.682Z,98402.86
2022-11-01T13:11:10.319Z,98401.70
2022-11-01T13:14:04.059Z,98400.64
2022-11-01T13:16:39.574Z,98396.48
2022-11-01T13:19:13.909Z,98394.92
2022-11-01T13:22:11.074Z,98399.62
2022-11-01T13:24:51.577Z,98391.84
2022-11-01T13:27:29.221Z,98397.15
2022-11-01T13:30:15.528Z,98398.54
2022-11-01T13:33:19.843Z,98397.06
2022-11-01T13:36:05.189Z,98395.67
2022-11-01T13:38:59.305Z,98394.80
2022-11-01T13:42:04.262Z,98399.27
2022-11-01T13:44:40.678Z,98398.09
2022-11-01T13:47:30.276Z,98393.38
2022-11-01T13:50:07.458Z,98393.90
2022-11-01T13:52:46.072Z,98396.02
2022-11-01T13:55:28.903Z,98392.08
2022-11-01T13:57:57.138Z,98390.30
2022-11-01T14:00:39.386Z,98387.30
2022-11-01T14:03:29.762Z,98384.59
2022-11-01T14:06:07.069Z,98384.73
2022-11-01T14:08:43.395Z,98381.15
2022-11-01T14:11:31.595Z,98377.45
2022-11-01T14:13:59.862Z,98372.37
2022-11-01T14:16:31.493Z,98373.20
2022-11-01T14:19:06.268Z,98367.39
2022-11-01T14:21:48.067Z,98363.98
2022-11-01T14:24:32.145Z,98362.19
2022-11-01T14:27:34.754Z,98359.46
2022-11-01T14:30:12.202Z,98354.45
2022-11-01T14:32:42.283Z,98349.71
2022-11-01T14:35:13.340Z,98350.23
2022-11-01T14:37:48.577Z,98350.91
2022-11-01T14:40:38.295Z,98348.30
2022-11-01T14:43:16.371Z,98351.34
2022-11-01T14:45:48.996Z,98351.17
2022-11-01T14:48:29.965Z,98350.83
2022-11-01T14:51:05.290Z,98354.10
2022-11-01T14:53:40.234Z,98351.86
2022-11-01T14:56:11.331Z,98354.31
2022-11-01T14:58:40.416Z,98351.83
2022-11-01T15:01:15.057Z,98354.23
2022-11-01T15:03:59.479Z,98349.54
2022-11-01T15:06:31.159Z,98350.05
2022-11-01T15:09:13.750Z,98356.33
2022-11-01T15:11:42.128Z,98352.63
2022-11-01T15:14:10.340Z,98352.36
2022-11-01T15:16:43.815Z,98348.58
2022-11-01T15:19:20.411Z,98350.45
2022-11-01T15:21:48.849Z,98352.48
2022-11-01T15:24:24.087Z,98347.86
2022-11-01T15:26:53.770Z,98350.51
2022-11-01T15:29:26.011Z,98350.08
2022-11-01T15:32:00.292Z,98346.74
2022-11-01T15:34:31.763Z,98342.00
2022-11-01T15:37:18.905Z,98347.30
2022-11-01T15:39:47.090Z,98338.45
2022-11-01T15:42:17.140Z,98347.18
2022-11-01T15:44:46.440Z,98346.34
2022-11-01T15:47:28.524Z,98345.32
2022-11-01T15:50:02.373Z,98347.94
2022-11-01T15:52:46.787Z,98349.91
2022-11-01T15:55:33.439Z,98355.48
2022-11-01T15:58:14.071Z,98353.86
2022-11-01T16:00:50.498Z,98356.98
2022-11-01T16:03:29.535Z,98354.51
2022-11-01T16:06:05.303Z,98356.23
2022-11-01T16:08:45.697Z,98358.60
2022-11-01T16:11:22.716Z,98354.45
2022-11-01T16:14:00.901Z,98365.77
2022-11-01T16:16:29.264Z,98365.54
2022-11-01T16:18:57.413Z,98365.26
2022-11-01T16:21:30.856Z,98366.91
2022-11-01T16:24:09.828Z,98365.44
2022-11-01T16:27:01.590Z,98362.66
2022-11-01T16:29:53.156Z,98363.70
2022-11-01T16:32:28.680Z,98361.36
2022-11-01T16:34:57.906Z,98363.17
2022-11-01T16:37:43.264Z,98360.84
2022-11-01T16:40:32.103Z,98356.90
2022-11-01T16:43:00.309Z,98354.59
2022-11-01T16:45:28.946Z,98351.30
2022-11-01T16:47:59.431Z,98352.53
2022-11-01T16:50:31.838Z,98354.44
2022-11-01T16:53:00.497Z,98350.30
2022-11-01T16:55:30.446Z,98352.45
2022-11-01T16:58:02.694Z,98352.91
2022-11-01T17:00:31.786Z,98351.09
2022-11-01T17:03:01.617Z,98350.56
2022-11-01T17:05:30.032Z,98352.71
2022-11-01T17:07:58.155Z,98353.79
2022-11-01T17:10:26.146Z,98351.80
2022-11-01T17:12:57.799Z,98351.02
2022-11-01T17:15:29.234Z,98351.69
2022-11-01T17:18:08.291Z,98353.52
2022-11-01T17:20:36.487Z,98357.62
2022-11-01T17:23:06.992Z,98359.77
2022-11-01T17:25:35.185Z,98363.98
2022-11-01T17:28:03.448Z,98367.64
2022-11-01T17:30:32.615Z,98368.87
2022-11-01T17:33:02.032Z,98373.60
2022-11-01T17:35:32.784Z,98375.35
2022-11-01T17:38:01.572Z,98373.35
2022-11-01T17:40:32.206Z,98373.58
2022-11-01T17:43:00.453Z,98371.25
2022-11-01T17:45:41.018Z,98370.67
2022-11-01T17:48:09.345Z,98369.89
2022-11-01T17:50:37.985Z,98364.60
2022-11-01T17:53:07.454Z,98363.73
2022-11-01T17:55:36.708Z,98362.65
2022-11-01T17:58:06.583Z,98361.02
2022-11-01T18:00:36.105Z,98353.52
2022-11-01T18:03:05.273Z,98350.59
2022-11-01T18:05:33.207Z,98348.95
2022-11-01T18:08:12.842Z,98345.27
2022-11-01T18:11:03.799Z,98342.50
2022-11-01T18:13:42.875Z,98347.92
2022-11-01T18:16:29.667Z,98343.85
2022-11-01T18:19:25.231Z,98342.05
2022-11-01T18:22:01.361Z,98342.96
2022-11-01T18:24:38.647Z,98339.60
2022-11-01T18:27:14.276Z,98331.09
2022-11-01T18:29:48.214Z,98324.91
2022-11-01T18:32:25.118Z,98330.13
2022-11-01T18:35:22.068Z,98330.34
2022-11-01T18:38:23.465Z,98327.96
2022-11-01T18:41:03.034Z,98328.10
2022-11-01T18:43:34.357Z,98327.66
2022-11-01T18:46:25.616Z,98333.89
2022-11-01T18:49:01.120Z,98336.79
2022-11-01T18:51:32.390Z,98336.54
2022-11-01T18:54:09.798Z,98333.83
2022-11-01T18:56:43.675Z,98335.88
2022-11-01T18:59:15.390Z,98336.23
2022-11-01T19:01:44.138Z,98333.14
2022-11-01T19:04:25.051Z,98330.55
2022-11-01T19:07:11.503Z,98333.13
2022-11-01T19:09:44.856Z,98332.45
2022-11-01T19:12:25.343Z,98332.05
2022-11-01T19:14:59.977Z,98335.27
2022-11-01T19:17:35.712Z,98331.50
2022-11-01T19:20:27.988Z,98329.06
2022-11-01T19:23:01.339Z,98322.31
2022-11-01T19:25:35.253Z,98322.00
2022-11-01T19:28:20.765Z,98320.61
2022-11-01T19:30:54.666Z,98318.80
2022-11-01T19:33:32.096Z,98313.87
2022-11-01T19:36:05.047Z,98315.91
2022-11-01T19:38:33.541Z,98316.52
2022-11-01T19:41:01.657Z,98313.60
2022-11-01T19:43:29.629Z,98312.98
2022-11-01T19:45:59.610Z,98314.89
2022-11-01T19:48:30.158Z,98314.95
2022-11-01T19:50:58.372Z,98313.23
2022-11-01T19:53:28.299Z,98310.73
2022-11-01T19:56:22.916Z,98312.15
2022-11-01T19:59:00.418Z,98306.67
2022-11-01T20:01:36.523Z,98308.55
2022-11-01T20:04:27.047Z,98308.92
2022-11-01T20:07:09.797Z,98309.97
2022-11-01T20:09:40.602Z,98307.58
2022-11-01T20:12:11.342Z,98310.77
2022-11-01T20:14:40.038Z,98308.80
2022-11-01T20:17:08.084Z,98307.30
2022-11-01T20:19:36.188Z,98305.58
2022-11-01T20:22:04.542Z,98307.96
2022-11-01T20:24:32.613Z,98306.02
2022-11-01T20:27:01.431Z,98298.05
2022-11-01T20:29:29.436Z,98302.64
2022-11-01T20:31:57.654Z,98301.01
2022-11-01T20:34:27.347Z,98297.48
2022-11-01T20:37:27.010Z,98300.38
2022-11-01T20:39:43.644Z,98296.61
2022-11-01T20:42:11.815Z,98296.06
2022-11-01T20:44:39.784Z,98297.13
2022-11-01T20:47:07.829Z,98297.41
2022-11-01T20:49:36.057Z,98302.30
2022-11-01T20:52:26.193Z,98299.06
2022-11-01T20:54:52.486Z,98296.01
2022-11-01T20:57:27.885Z,98290.41
2022-11-01T20:59:57.381Z,98286.82
2022-11-01T21:02:25.613Z,98287.16
2022-11-01T21:05:02.831Z,98286.96
2022-11-01T21:07:33.025Z,98285.93
2022-11-01T21:10:01.336Z,98278.77
2022-11-01T21:12:45.555Z,98278.08
2022-11-01T21:15:32.623Z,98275.20
2022-11-01T21:18:12.357Z,98274.89
2022-11-01T21:21:02.051Z,98277.00
2022-11-01T21:23:37.955Z,98273.98
2022-11-01T21:26:28.303Z,98273.41
2022-11-01T21:29:20.590Z,98272.65
2022-11-01T21:31:48.620Z,98271.73
2022-11-01T21:34:36.847Z,98266.94
2022-11-01T21:37:09.041Z,98267.38
2022-11-01T21:39:39.070Z,98266.61
2022-11-01T21:42:41.292Z,98265.83
2022-11-01T21:45:29.881Z,98266.77
2022-11-01T21:48:01.681Z,98269.98
2022-11-01T21:50:29.989Z,98268.40
2022-11-01T21:52:57.926Z,98269.48
2022-11-01T21:55:26.035Z,98272.48
2022-11-01T21:57:54.019Z,98274.08
2022-11-01T22:00:22.213Z,98270.46
2022-11-01T22:02:50.237Z,98269.27
2022-11-01T22:05:18.313Z,98271.48
2022-11-01T22:07:46.397Z,98274.34
2022-11-01T22:10:14.304Z,98279.13
2022-11-01T22:12:42.551Z,98278.50
2022-11-01T22:15:11.061Z,98279.91
2022-11-01T22:17:39.276Z,98281.13
2022-11-01T22:20:07.814Z,98285.49
2022-11-01T22:22:35.922Z,98288.30
2022-11-01T22:25:04.222Z,98283.16
2022-11-01T22:27:32.222Z,98275.85
2022-11-01T22:30:00.205Z,98276.65
2022-11-01T22:32:29.566Z,98276.30
2022-11-01T22:34:57.624Z,98269.63
2022-11-01T22:37:27.313Z,98268.48
2022-11-01T22:40:14.655Z,98271.96
2022-11-01T22:42:42.641Z,98269.92
2022-11-01T22:45:19.636Z,98269.63
2022-11-01T22:47:47.903Z,98272.59
2022-11-01T22:50:28.713Z,98268.08
2022-11-01T22:52:56.714Z,98262.14
2022-11-01T22:55:30.656Z,98257.45
2022-11-01T22:58:11.237Z,98257.31
2022-11-01T23:00:39.576Z,98255.55
2022-11-01T23:03:36.849Z,98258.77
2022-11-01T23:06:30.047Z,98255.73
2022-11-01T23:09:15.146Z,98251.75
2022-11-01T23:12:06.666Z,98251.98
2022-11-01T23:14:50.048Z,98253.41
2022-11-01T23:17:35.398Z,98257.75
2022-11-01T23:20:29.657Z,98258.57
2022-11-01T23:23:00.356Z,98261.27
2022-11-01T23:25:30.392Z,98264.41
2022-11-01T23:28:08.351Z,98260.29
2022-11-01T23:30:37.009Z,98257.16
2022-11-01T23:33:08.919Z,98257.45
2022-11-01T23:35:36.914Z,98260.56
2022-11-01T23:38:17.086Z,98263.96
2022-11-01T23:40:46.183Z,98270.91
2022-11-01T23:43:39.052Z,98269.81
2022-11-01T23:46:10.427Z,98270.11
2022-11-01T23:48:43.130Z,98268.36
2022-11-01T23:51:21.638Z,98269.85
2022-11-01T23:53:53.235Z,98266.71
2022-11-01T23:56:22.205Z,98273.73
2022-11-01T23:58:56.771Z,98274.11
